createdAt,value
2018-11-04T00:02:27.837Z,71.88
2018-11-04T00:05:02.651Z,69.94
2018-11-04T00:07:37.984Z,68.39
2018-11-04T00:10:13.096Z,68.27
2018-11-04T00:12:47.976Z,67.21
2018-11-04T00:15:23.198Z,67.28
2018-11-04T00:17:58.028Z,70.58
2018-11-04T00:20:33.012Z,68.00
2018-11-04T00:23:07.932Z,67.60
2018-11-04T00:25:42.955Z,67.51
2018-11-04T00:28:17.739Z,68.27
2018-11-04T00:30:52.635Z,67.44
2018-11-04T00:33:27.670Z,68.49
2018-11-04T00:36:03.599Z,70.25
2018-11-04T00:38:38.577Z,69.75
2018-11-04T00:41:13.452Z,69.00
2018-11-04T00:43:48.575Z,68.44
2018-11-04T00:46:23.570Z,69.67
2018-11-04T00:48:58.528Z,72.91
2018-11-04T00:51:33.548Z,73.97
2018-11-04T00:54:08.646Z,74.12
2018-11-04T00:56:43.526Z,72.60
2018-11-04T00:59:18.526Z,71.04
2018-11-04T01:01:53.679Z,70.20
2018-11-04T01:04:28.594Z,70.55
2018-11-04T01:07:04.159Z,69.33
2018-11-04T01:09:39.411Z,70.63
2018-11-04T01:12:14.425Z,72.26
2018-11-04T01:14:49.240Z,72.44
2018-11-04T01:17:24.216Z,72.48
2018-11-04T01:19:59.337Z,71.21
2018-11-04T01:22:34.379Z,70.74
2018-11-04T01:25:09.439Z,69.11
2018-11-04T01:27:44.314Z,71.07
2018-11-04T01:30:19.720Z,70.53
2018-11-04T01:32:54.748Z,71.24
2018-11-04T01:35:29.839Z,72.28
2018-11-04T01:38:05.661Z,72.89
2018-11-04T01:40:40.677Z,73.71
2018-11-04T01:43:15.884Z,73.28
2018-11-04T01:45:50.885Z,73.98
2018-11-04T01:48:26.483Z,74.18
2018-11-04T01:51:01.347Z,74.36
2018-11-04T01:53:36.403Z,73.56
2018-11-04T01:56:11.212Z,74.55
2018-11-04T01:58:46.448Z,71.46
2018-11-04T02:01:21.417Z,72.55
2018-11-04T02:03:56.320Z,71.62
2018-11-04T02:06:31.757Z,70.59
2018-11-04T02:09:07.901Z,70.40
2018-11-04T02:11:42.677Z,71.80
2018-11-04T02:14:17.737Z,74.13
2018-11-04T02:16:52.780Z,75.50
2018-11-04T02:19:27.899Z,75.26
2018-11-04T02:22:02.644Z,73.88
2018-11-04T02:24:38.296Z,73.97
2018-11-04T02:27:13.135Z,72.99
2018-11-04T02:29:48.130Z,73.40
2018-11-04T02:32:23.058Z,74.21
2018-11-04T02:34:58.187Z,71.57
2018-11-04T02:37:33.292Z,72.38
2018-11-04T02:40:08.321Z,72.82
2018-11-04T02:42:43.294Z,74.04
2018-11-04T02:45:23.632Z,74.78
2018-11-04T02:47:58.416Z,72.26
2018-11-04T02:50:33.404Z,71.64
2018-11-04T02:53:08.580Z,70.55
2018-11-04T02:55:43.464Z,72.11
2018-11-04T02:58:18.527Z,71.32
2018-11-04T03:00:53.564Z,72.61
2018-11-04T03:03:28.471Z,71.78
2018-11-04T03:06:03.487Z,74.23
2018-11-04T03:08:38.437Z,75.19
2018-11-04T03:11:13.430Z,74.69
2018-11-04T03:13:48.256Z,74.40
2018-11-04T03:16:23.185Z,73.75
2018-11-04T03:18:58.104Z,73.61
2018-11-04T03:21:33.024Z,73.59
2018-11-04T03:24:07.968Z,74.02
2018-11-04T03:26:42.926Z,72.80
2018-11-04T03:29:17.857Z,72.23
2018-11-04T03:31:53.516Z,71.12
2018-11-04T03:34:28.404Z,71.49
2018-11-04T03:37:03.372Z,71.12
2018-11-04T03:39:38.403Z,70.70
2018-11-04T03:42:13.500Z,70.70
2018-11-04T03:44:48.328Z,72.53
2018-11-04T03:47:23.422Z,75.72
2018-11-04T03:49:58.198Z,75.62
2018-11-04T03:52:33.260Z,76.16
2018-11-04T03:55:08.460Z,77.35
2018-11-04T03:57:43.441Z,76.76
2018-11-04T04:00:18.447Z,78.00
2018-11-04T04:02:53.459Z,78.18
2018-11-04T04:05:28.301Z,75.49
2018-11-04T04:08:03.150Z,74.97
2018-11-04T04:10:38.176Z,73.46
2018-11-04T04:13:13.185Z,72.21
2018-11-04T04:15:48.208Z,72.99
2018-11-04T04:18:23.159Z,71.90
2018-11-04T04:21:06.921Z,72.57
2018-11-04T04:23:42.509Z,75.48
2018-11-04T04:26:17.397Z,75.92
2018-11-04T04:28:53.404Z,75.55
2018-11-04T04:31:29.189Z,75.45
2018-11-04T04:34:04.161Z,77.67
2018-11-04T04:36:39.084Z,78.06
2018-11-04T04:39:14.389Z,78.13
2018-11-04T04:41:49.329Z,78.61
2018-11-04T04:44:24.198Z,78.32
2018-11-04T04:46:59.232Z,78.62
2018-11-04T04:49:35.170Z,77.83
2018-11-04T04:52:09.951Z,77.78
2018-11-04T04:54:44.792Z,77.08
2018-11-04T04:57:20.188Z,77.06
2018-11-04T04:59:54.988Z,76.48
2018-11-04T05:02:29.954Z,75.97
2018-11-04T05:05:05.818Z,76.17
2018-11-04T05:07:40.770Z,75.98
2018-11-04T05:10:15.592Z,76.75
2018-11-04T05:12:50.552Z,75.10
2018-11-04T05:15:25.500Z,73.91
2018-11-04T05:18:00.849Z,75.16
2018-11-04T05:20:36.448Z,77.01
2018-11-04T05:23:11.252Z,76.68
2018-11-04T05:25:46.771Z,76.03
2018-11-04T05:28:21.630Z,77.14
2018-11-04T05:30:56.650Z,76.66
2018-11-04T05:33:31.665Z,74.99
2018-11-04T05:36:06.738Z,74.43
2018-11-04T05:38:41.670Z,73.02
2018-11-04T05:41:16.672Z,71.50
2018-11-04T05:43:51.603Z,71.46
2018-11-04T05:46:26.615Z,69.15
2018-11-04T05:49:01.576Z,69.66
2018-11-04T05:51:36.931Z,67.60
2018-11-04T05:54:11.821Z,67.66
2018-11-04T05:56:46.840Z,65.88
2018-11-04T05:59:21.669Z,65.65
2018-11-04T06:01:56.627Z,66.65
2018-11-04T06:04:31.596Z,63.86
2018-11-04T06:07:06.633Z,62.52
2018-11-04T06:09:41.568Z,63.09
2018-11-04T06:12:16.588Z,62.99
2018-11-04T06:14:51.432Z,61.54
2018-11-04T06:17:26.496Z,60.22
2018-11-04T06:20:02.369Z,60.60
2018-11-04T06:22:37.163Z,59.22
2018-11-04T06:25:12.112Z,57.41
2018-11-04T06:27:46.953Z,57.41
2018-11-04T06:30:22.004Z,57.06
2018-11-04T06:32:56.990Z,54.15
2018-11-04T06:35:31.908Z,54.63
2018-11-04T06:38:07.032Z,51.39
2018-11-04T06:40:41.845Z,50.92
2018-11-04T06:43:16.638Z,48.60
2018-11-04T06:45:51.569Z,50.40
2018-11-04T06:48:26.513Z,51.85
2018-11-04T06:51:02.167Z,49.93
2018-11-04T06:53:37.048Z,48.24
2018-11-04T06:56:12.017Z,46.42
2018-11-04T06:58:46.870Z,46.60
2018-11-04T07:01:21.786Z,47.93
2018-11-04T07:04:02.238Z,48.77
2018-11-04T07:06:37.083Z,46.24
2018-11-04T07:09:12.146Z,47.26
2018-11-04T07:11:48.243Z,47.73
2018-11-04T07:14:23.224Z,48.10
2018-11-04T07:16:58.198Z,49.91
2018-11-04T07:19:33.928Z,48.29
2018-11-04T07:22:08.909Z,47.03
2018-11-04T07:24:43.917Z,46.07
2018-11-04T07:27:18.973Z,45.41
2018-11-04T07:29:53.884Z,43.72
2018-11-04T07:32:28.765Z,42.23
2018-11-04T07:35:03.817Z,42.93
2018-11-04T07:37:39.093Z,43.25
2018-11-04T07:40:14.101Z,43.30
2018-11-04T07:42:48.932Z,41.02
2018-11-04T07:45:23.841Z,42.65
2018-11-04T07:47:58.854Z,40.75
2018-11-04T07:50:33.791Z,39.66
2018-11-04T07:53:08.934Z,41.08
2018-11-04T07:55:44.108Z,37.82
2018-11-04T07:58:19.099Z,36.77
2018-11-04T08:00:54.216Z,35.52
2018-11-04T08:03:29.216Z,35.22
2018-11-04T08:06:04.730Z,35.65
2018-11-04T08:08:39.626Z,34.46
2018-11-04T08:11:14.779Z,34.21
2018-11-04T08:13:49.979Z,32.56
2018-11-04T08:16:24.652Z,32.59
2018-11-04T08:18:59.421Z,31.52
2018-11-04T08:21:34.368Z,31.72
2018-11-04T08:24:09.528Z,29.82
2018-11-04T08:26:44.563Z,31.21
2018-11-04T08:29:19.351Z,32.12
2018-11-04T08:31:54.542Z,29.45
2018-11-04T08:34:30.221Z,29.69
2018-11-04T08:37:11.446Z,27.31
2018-11-04T08:39:46.361Z,28.36
2018-11-04T08:42:21.745Z,30.78
2018-11-04T08:44:56.620Z,26.44
2018-11-04T08:47:31.580Z,27.27
2018-11-04T08:50:07.220Z,27.68
2018-11-04T08:52:42.077Z,26.52
2018-11-04T08:55:17.145Z,26.26
2018-11-04T08:57:52.324Z,25.83
2018-11-04T09:00:27.376Z,26.51
2018-11-04T09:03:02.503Z,28.14
2018-11-04T09:05:42.531Z,28.55
2018-11-04T09:08:18.241Z,29.20
2018-11-04T09:10:53.262Z,30.43
2018-11-04T09:13:28.291Z,30.73
2018-11-04T09:16:03.196Z,30.21
2018-11-04T09:18:38.151Z,29.96
2018-11-04T09:21:13.868Z,30.53
2018-11-04T09:23:48.978Z,28.95
2018-11-04T09:26:23.992Z,29.38
2018-11-04T09:28:59.120Z,27.47
2018-11-04T09:31:35.117Z,27.61
2018-11-04T09:34:10.189Z,26.70
2018-11-04T09:36:44.930Z,26.56
2018-11-04T09:39:20.463Z,25.65
2018-11-04T09:41:55.456Z,26.60
2018-11-04T09:44:31.489Z,26.79
2018-11-04T09:47:08.632Z,26.22
2018-11-04T09:49:43.710Z,25.26
2018-11-04T09:52:18.579Z,24.86
2018-11-04T09:54:53.726Z,24.92
2018-11-04T09:57:28.581Z,25.08
2018-11-04T10:00:03.733Z,25.10
2018-11-04T10:02:39.292Z,24.78
2018-11-04T10:05:14.121Z,24.22
2018-11-04T10:07:49.093Z,23.87
2018-11-04T10:10:28.465Z,23.14
2018-11-04T10:13:03.306Z,23.41
2018-11-04T10:15:38.765Z,22.27
2018-11-04T10:18:13.677Z,23.39
2018-11-04T10:20:49.169Z,22.64
2018-11-04T10:23:32.236Z,22.25
2018-11-04T10:26:07.672Z,21.96
2018-11-04T10:28:42.672Z,23.53
2018-11-04T10:31:22.016Z,22.69
2018-11-04T10:34:08.031Z,22.16
2018-11-04T10:36:45.107Z,21.84
2018-11-04T10:39:22.611Z,20.62
2018-11-04T10:41:57.594Z,20.74
2018-11-04T10:44:33.629Z,20.66
2018-11-04T10:47:08.726Z,20.47
2018-11-04T10:49:43.796Z,20.06
2018-11-04T10:52:18.825Z,20.24
2018-11-04T10:54:53.990Z,20.10
2018-11-04T10:57:29.210Z,20.37
2018-11-04T11:00:04.149Z,21.14
2018-11-04T11:02:39.225Z,21.07
2018-11-04T11:05:14.474Z,21.58
2018-11-04T11:07:49.966Z,21.68
2018-11-04T11:10:30.632Z,21.11
2018-11-04T11:13:05.924Z,20.35
2018-11-04T11:15:45.310Z,20.12
2018-11-04T11:18:20.257Z,19.86
2018-11-04T11:20:55.148Z,19.85
2018-11-04T11:23:30.321Z,21.04
2018-11-04T11:26:09.765Z,19.10
2018-11-04T11:28:44.691Z,20.47
2018-11-04T11:31:19.768Z,19.43
2018-11-04T11:33:54.835Z,18.91
2018-11-04T11:36:38.218Z,18.93
2018-11-04T11:39:14.377Z,19.97
2018-11-04T11:41:49.702Z,19.32
2018-11-04T11:44:24.648Z,19.63
2018-11-04T11:46:59.633Z,19.07
2018-11-04T11:49:34.844Z,18.70
2018-11-04T11:52:10.141Z,18.43
2018-11-04T11:54:45.047Z,18.40
2018-11-04T11:57:20.091Z,16.81
2018-11-04T11:59:55.092Z,17.68
2018-11-04T12:02:30.267Z,18.28
2018-11-04T12:05:05.713Z,18.16
2018-11-04T12:07:40.674Z,18.26
2018-11-04T12:10:15.630Z,18.05
2018-11-04T12:12:50.545Z,19.29
2018-11-04T12:15:26.206Z,18.06
2018-11-04T12:18:00.986Z,17.49
2018-11-04T12:20:35.914Z,16.63
2018-11-04T12:23:10.857Z,16.93
2018-11-04T12:25:50.215Z,18.46
2018-11-04T12:28:33.496Z,17.59
2018-11-04T12:31:17.505Z,18.43
2018-11-04T12:34:00.844Z,18.41
2018-11-04T12:36:36.006Z,17.69
2018-11-04T12:39:22.010Z,16.71
2018-11-04T12:42:03.275Z,17.12
2018-11-04T12:44:38.159Z,16.56
2018-11-04T12:47:13.306Z,16.87
2018-11-04T12:49:48.457Z,16.19
2018-11-04T12:52:23.631Z,16.47
2018-11-04T12:54:58.760Z,15.49
2018-11-04T12:57:33.745Z,16.52
2018-11-04T13:00:09.925Z,15.24
2018-11-04T13:02:45.449Z,16.31
2018-11-04T13:05:34.938Z,16.59
2018-11-04T13:08:11.029Z,17.19
2018-11-04T13:10:47.026Z,16.71
2018-11-04T13:13:23.561Z,15.61
2018-11-04T13:15:59.677Z,15.23
2018-11-04T13:18:35.884Z,16.22
2018-11-04T13:21:16.080Z,14.73
2018-11-04T13:24:02.712Z,15.12
2018-11-04T13:26:47.876Z,14.94
2018-11-04T13:29:32.724Z,14.23
2018-11-04T13:32:21.531Z,15.13
2018-11-04T13:35:02.322Z,15.09
2018-11-04T13:37:47.128Z,15.57
2018-11-04T13:40:31.542Z,15.77
2018-11-04T13:43:07.634Z,15.86
2018-11-04T13:45:44.049Z,15.99
2018-11-04T13:48:20.357Z,16.81
2018-11-04T13:50:56.344Z,17.62
2018-11-04T13:53:32.340Z,17.97
2018-11-04T13:56:12.901Z,18.76
2018-11-04T13:58:48.941Z,18.13
2018-11-04T14:01:25.068Z,18.56
2018-11-04T14:04:01.186Z,19.30
2018-11-04T14:06:37.452Z,18.99
2018-11-04T14:09:13.670Z,20.11
2018-11-04T14:11:49.818Z,20.55
2018-11-04T14:14:21.036Z,20.38
2018-11-04T14:17:01.001Z,20.62
2018-11-04T14:19:31.932Z,21.00
2018-11-04T14:22:03.163Z,20.81
2018-11-04T14:24:34.412Z,21.32
2018-11-04T14:27:11.609Z,21.29
2018-11-04T14:29:42.559Z,22.60
2018-11-04T14:32:14.357Z,23.11
2018-11-04T14:34:45.433Z,23.50
2018-11-04T14:37:16.621Z,22.77
2018-11-04T14:39:47.563Z,24.67
2018-11-04T14:42:22.948Z,25.19
2018-11-04T14:44:57.980Z,27.59
2018-11-04T14:47:28.962Z,27.87
2018-11-04T14:50:06.450Z,27.49
2018-11-04T14:52:51.917Z,28.67
2018-11-04T14:55:27.973Z,30.89
2018-11-04T14:58:04.521Z,32.24
2018-11-04T15:00:40.505Z,32.85
2018-11-04T15:03:25.272Z,31.35
2018-11-04T15:06:09.572Z,30.66
2018-11-04T15:08:50.840Z,32.64
2018-11-04T15:11:26.865Z,32.01
2018-11-04T15:14:02.936Z,31.27
2018-11-04T15:16:38.849Z,33.86
2018-11-04T15:19:15.680Z,32.90
2018-11-04T15:21:52.480Z,35.17
2018-11-04T15:24:34.445Z,35.96
2018-11-04T15:27:15.216Z,37.19
2018-11-04T15:29:55.289Z,37.15
2018-11-04T15:32:31.236Z,39.06
2018-11-04T15:35:13.535Z,37.81
2018-11-04T15:37:49.513Z,37.86
2018-11-04T15:40:34.936Z,37.51
2018-11-04T15:43:11.157Z,38.96
2018-11-04T15:45:47.208Z,39.27
2018-11-04T15:48:23.110Z,39.62
2018-11-04T15:51:04.412Z,40.25
2018-11-04T15:53:40.365Z,41.20
2018-11-04T15:56:25.781Z,42.02
2018-11-04T15:59:01.655Z,41.94
2018-11-04T16:01:37.752Z,41.93
2018-11-04T16:04:08.652Z,43.48
2018-11-04T16:06:39.717Z,42.28
2018-11-04T16:09:10.604Z,43.52
2018-11-04T16:11:46.932Z,41.87
2018-11-04T16:14:17.909Z,43.13
2018-11-04T16:16:48.869Z,42.48
2018-11-04T16:19:19.954Z,43.12
2018-11-04T16:21:50.991Z,41.69
2018-11-04T16:24:22.041Z,41.77
2018-11-04T16:26:54.914Z,42.38
2018-11-04T16:29:27.336Z,43.09
2018-11-04T16:31:59.485Z,43.30
2018-11-04T16:34:30.616Z,44.14
2018-11-04T16:37:01.602Z,44.68
2018-11-04T16:39:32.960Z,44.65
2018-11-04T16:42:04.043Z,44.87
2018-11-04T16:44:35.026Z,45.38
2018-11-04T16:47:06.365Z,45.26
2018-11-04T16:49:37.362Z,45.47
2018-11-04T16:52:10.378Z,45.34
2018-11-04T16:54:41.431Z,45.75
2018-11-04T16:57:12.419Z,45.58
2018-11-04T16:59:43.418Z,45.05
2018-11-04T17:02:14.452Z,44.78
2018-11-04T17:04:45.532Z,45.65
2018-11-04T17:07:16.968Z,45.45
2018-11-04T17:09:48.176Z,44.92
2018-11-04T17:12:20.231Z,45.04
2018-11-04T17:14:54.006Z,46.09
2018-11-04T17:17:25.641Z,47.20
2018-11-04T17:19:57.217Z,48.18
2018-11-04T17:22:28.305Z,49.09
2018-11-04T17:25:03.707Z,50.37
2018-11-04T17:27:35.636Z,48.97
2018-11-04T17:30:10.539Z,50.77
2018-11-04T17:32:41.545Z,47.45
2018-11-04T17:35:14.423Z,48.26
2018-11-04T17:37:49.844Z,48.28
2018-11-04T17:40:20.781Z,48.34
2018-11-04T17:42:51.821Z,51.10
2018-11-04T17:45:22.834Z,47.59
2018-11-04T17:47:54.039Z,48.35
2018-11-04T17:51:49.384Z,48.11
2018-11-04T17:54:20.377Z,49.18
2018-11-04T17:56:52.564Z,49.05
2018-11-04T17:59:24.223Z,49.23
2018-11-04T18:01:55.276Z,50.26
2018-11-04T18:04:28.158Z,50.64
2018-11-04T18:06:59.106Z,50.03
2018-11-04T18:09:30.853Z,50.53
2018-11-04T18:12:01.810Z,49.00
2018-11-04T18:14:32.818Z,49.14
2018-11-04T18:17:04.708Z,47.85
2018-11-04T18:19:35.727Z,50.64
2018-11-04T18:22:07.190Z,48.82
2018-11-04T18:24:38.913Z,48.89
2018-11-04T18:27:09.845Z,49.78
2018-11-04T18:29:40.922Z,50.49
2018-11-04T18:32:11.970Z,51.89
2018-11-04T18:34:43.091Z,52.37
2018-11-04T18:37:14.006Z,52.63
2018-11-04T18:39:45.044Z,52.93
2018-11-04T18:42:16.175Z,52.40
2018-11-04T18:44:47.225Z,52.27
2018-11-04T18:47:18.338Z,53.38
2018-11-04T18:49:49.377Z,51.90
2018-11-04T18:52:20.428Z,50.36
2018-11-04T18:54:52.299Z,51.22
2018-11-04T18:57:23.282Z,51.75
2018-11-04T18:59:54.569Z,52.79
2018-11-04T19:02:25.933Z,54.96
2018-11-04T19:04:56.855Z,54.64
2018-11-04T19:07:27.787Z,56.14
2018-11-04T19:09:59.337Z,55.49
2018-11-04T19:12:30.233Z,54.45
2018-11-04T19:15:01.425Z,54.72
2018-11-04T19:17:32.326Z,55.39
2018-11-04T19:20:04.519Z,56.64
2018-11-04T19:22:36.202Z,57.04
2018-11-04T19:25:08.250Z,56.47
2018-11-04T19:27:39.161Z,56.14
2018-11-04T19:30:12.801Z,56.22
2018-11-04T19:32:44.109Z,56.56
2018-11-04T19:35:16.049Z,55.34
2018-11-04T19:37:50.657Z,56.24
2018-11-04T19:40:34.386Z,56.48
2018-11-04T19:43:05.400Z,56.78
2018-11-04T19:45:36.529Z,57.49
2018-11-04T19:48:07.604Z,58.17
2018-11-04T19:50:38.746Z,58.33
2018-11-04T19:53:09.661Z,60.41
2018-11-04T19:55:40.723Z,61.25
2018-11-04T19:58:11.787Z,61.43
2018-11-04T20:00:42.951Z,61.39
2018-11-04T20:03:13.855Z,60.64
2018-11-04T20:05:45.011Z,60.21
2018-11-04T20:08:16.212Z,59.56
2018-11-04T20:10:47.589Z,59.96
2018-11-04T20:13:23.821Z,60.41
2018-11-04T20:15:54.903Z,60.10
2018-11-04T20:20:43.442Z,59.27
2018-11-04T20:23:14.543Z,59.27
2018-11-04T20:25:50.631Z,58.27
2018-11-04T20:28:21.715Z,59.01
2018-11-04T20:30:52.665Z,58.27
2018-11-04T20:33:23.922Z,56.57
2018-11-04T20:35:54.919Z,58.36
2018-11-04T20:38:31.154Z,57.25
2018-11-04T20:41:06.969Z,59.31
2018-11-04T20:43:37.942Z,61.33
2018-11-04T20:46:09.098Z,60.50
2018-11-04T20:49:47.801Z,58.86
2018-11-04T20:52:19.052Z,58.17
2018-11-04T20:54:50.086Z,59.91
2018-11-04T20:57:25.948Z,60.20
2018-11-04T21:00:02.551Z,60.72
2018-11-04T21:02:38.682Z,60.35
2018-11-04T21:05:14.847Z,60.48
2018-11-04T21:07:50.744Z,59.86
2018-11-04T21:10:26.755Z,60.71
2018-11-04T21:13:02.705Z,60.77
2018-11-04T21:15:41.382Z,61.06
2018-11-04T21:18:17.491Z,60.88
2018-11-04T21:20:57.188Z,60.99
2018-11-04T21:23:33.045Z,60.16
2018-11-04T21:26:10.352Z,61.03
2018-11-04T21:28:46.417Z,60.30
2018-11-04T21:31:22.890Z,59.83
2018-11-04T21:33:59.814Z,60.67
2018-11-04T21:36:36.155Z,63.60
2018-11-04T21:39:13.067Z,63.72
2018-11-04T21:41:49.109Z,64.53
2018-11-04T21:44:25.725Z,64.62
2018-11-04T21:47:01.743Z,65.92
2018-11-04T21:49:37.603Z,65.94
2018-11-04T21:52:13.953Z,65.51
2018-11-04T21:54:49.888Z,65.17
2018-11-04T21:57:25.859Z,65.39
2018-11-04T22:00:01.790Z,64.50
2018-11-04T22:02:37.850Z,64.29
2018-11-04T22:05:14.025Z,62.40
2018-11-04T22:07:50.072Z,64.30
2018-11-04T22:10:25.963Z,65.37
2018-11-04T22:13:02.209Z,65.77
2018-11-04T22:15:38.037Z,65.22
2018-11-04T22:18:13.894Z,65.96
2018-11-04T22:20:49.827Z,67.40
2018-11-04T22:23:25.990Z,66.10
2018-11-04T22:26:01.885Z,65.87
2018-11-04T22:28:37.765Z,66.51
2018-11-04T22:31:13.626Z,65.84
2018-11-04T22:33:50.314Z,65.41
2018-11-04T22:36:26.281Z,67.81
2018-11-04T22:39:02.950Z,68.28
2018-11-04T22:41:38.949Z,68.88
2018-11-04T22:44:14.841Z,69.09
2018-11-04T22:46:50.789Z,66.66
2018-11-04T22:49:26.834Z,65.95
2018-11-04T22:52:02.592Z,66.26
2018-11-04T22:54:38.548Z,67.07
2018-11-04T22:57:14.381Z,67.89
2018-11-04T22:59:50.324Z,67.93
2018-11-04T23:02:27.133Z,68.69
2018-11-04T23:05:08.117Z,69.25
2018-11-04T23:07:44.428Z,69.69
2018-11-04T23:10:21.172Z,69.79
2018-11-04T23:12:56.957Z,70.10
2018-11-04T23:15:33.042Z,68.55
2018-11-04T23:18:09.000Z,68.28
2018-11-04T23:20:50.953Z,68.60
2018-11-04T23:23:27.051Z,67.93
2018-11-04T23:26:02.992Z,68.80
2018-11-04T23:28:39.469Z,68.37
2018-11-04T23:31:15.518Z,68.82
2018-11-04T23:33:51.805Z,68.98
2018-11-04T23:36:28.332Z,69.37
2018-11-04T23:39:05.468Z,69.39
2018-11-04T23:41:41.538Z,68.35
2018-11-04T23:44:17.365Z,68.16
2018-11-04T23:46:53.436Z,68.59
2018-11-04T23:49:29.777Z,68.20
2018-11-04T23:52:05.724Z,68.01
2018-11-04T23:54:41.650Z,68.67
2018-11-04T23:57:17.501Z,68.88
2018-11-04T23:59:53.450Z,69.51
